Rocky Hill, Texas
Current Conditions -  °F | °C
As of 12:51 PM on Friday 28 Nov 2014 (Local Time) from KACT Reporting Station
Few Clouds Few Clouds  
Wind Chill: 66°   Ceiling: Unl
Heat Index: 66°   Visibility: 10mi
Dew Point: 51°   Wind: 18mph
Humidity: 59%   Direction: 200°SSW
Pressure: 30.17"   Gusts: 29mph
Location:  31.3313°N, 96.8629°W
Report Text: KACT 281851Z 20016G25KT 10SM FEW030 19/11 A3017 RMK AO2 PK WND 18028/1824 SLP214 T01890106
Loading
Personal Weather Stations






























Interactive Weather Map New forecast layout! Learn more

10-Day Weather Forecast

Advertisements
Track Severe Weather on mobile